Time;durP1;ratioP1;P1;durP2;ratioP2;P2;SDS_P1;SDS_P2;PMS_P1;PMS_P2;Temp;Humidity;BMP_temperature;BMP_pressure;BME280_temperature;BME280_humidity;BME280_pressure;Samples;Min_cycle;Max_cycle;Signal;HPM_P1;HPM_P2
2021/08/15 00:24:12;;;;;;;13.48;6.70;;;;;;;;;;4951779;29;20067;-89
2021/08/15 00:30:30;;;;;;;11.48;6.22;;;;;;;;;;4951776;29;20046;-89
2021/08/15 00:46:35;;;;;;;10.25;6.00;;;;;;;;;;4972892;28;20050;-88
2021/08/15 00:52:22;;;;;;;14.07;6.63;;;;;;;;;;4959605;28;20043;-88
2021/08/15 00:58:59;;;;;;;12.45;6.60;;;;;;;;;;4953440;29;20043;-89
2021/08/15 01:04:58;;;;;;;12.60;6.50;;;;;;;;;;4957669;29;20050;-88
2021/08/15 01:11:16;;;;;;;12.18;6.70;;;;;;;;;;4957016;29;20050;-89
2021/08/15 02:18:16;;;;;;;11.35;6.30;;;;;;;;;;4975555;28;20053;-89
2021/08/15 02:38:22;;;;;;;13.77;6.50;;;;;;;;;;4955907;29;20046;-89
2021/08/15 02:47:34;;;;;;;14.10;7.68;;;;;;;;;;4955689;29;20130;-88
2021/08/15 03:00:54;;;;;;;13.07;7.20;;;;;;;;;;4955315;29;20073;-88
2021/08/15 03:10:04;;;;;;;13.70;6.65;;;;;;;;;;4955822;29;20042;-88
2021/08/15 03:12:30;;;;;;;11.38;7.18;;;;;;;;;;4922198;29;20117;-87
2021/08/15 03:14:56;;;;;;;12.63;6.35;;;;;;;;;;4937981;29;20031;-87
2021/08/15 03:17:43;;;;;;;13.07;6.93;;;;;;;;;;4922383;29;20027;-87
2021/08/15 03:20:24;;;;;;;12.38;6.97;;;;;;;;;;4953799;29;20027;-88
2021/08/15 03:22:50;;;;;;;10.93;6.55;;;;;;;;;;4953500;28;20046;-88
2021/08/15 03:25:15;;;;;;;11.80;6.33;;;;;;;;;;4937576;29;20413;-87
2021/08/15 03:27:40;;;;;;;13.43;6.97;;;;;;;;;;4937770;29;20027;-87
2021/08/15 03:30:06;;;;;;;12.27;6.87;;;;;;;;;;4937853;29;20514;-87
2021/08/15 03:32:32;;;;;;;12.90;6.37;;;;;;;;;;4921791;29;20115;-87
2021/08/15 03:34:57;;;;;;;13.13;6.90;;;;;;;;;;4938041;29;20495;-87
2021/08/15 03:37:22;;;;;;;12.93;6.67;;;;;;;;;;4921775;29;20085;-87
2021/08/15 03:39:48;;;;;;;16.73;7.80;;;;;;;;;;4937369;29;20114;-87
2021/08/15 03:42:13;;;;;;;10.80;6.73;;;;;;;;;;4937413;29;20470;-87
2021/08/15 03:44:38;;;;;;;13.00;6.67;;;;;;;;;;4937493;29;20031;-88
2021/08/15 03:47:04;;;;;;;14.03;6.73;;;;;;;;;;4937364;29;20030;-87
2021/08/15 03:49:29;;;;;;;11.07;6.47;;;;;;;;;;4937571;29;20045;-88
2021/08/15 03:51:55;;;;;;;15.33;6.23;;;;;;;;;;4950954;28;20731;-87
2021/08/15 03:54:21;;;;;;;12.07;6.07;;;;;;;;;;4940618;28;20027;-87
2021/08/15 03:56:47;;;;;;;13.50;6.37;;;;;;;;;;4956762;28;20477;-87
2021/08/15 03:59:13;;;;;;;11.77;6.40;;;;;;;;;;4940668;28;20066;-87
2021/08/15 04:01:38;;;;;;;13.03;6.33;;;;;;;;;;4940534;28;20382;-87
2021/08/15 04:04:04;;;;;;;13.33;6.60;;;;;;;;;;4956422;28;20022;-87
2021/08/15 04:06:29;;;;;;;15.10;6.13;;;;;;;;;;4940321;28;20023;-88
2021/08/15 04:08:56;;;;;;;10.30;6.50;;;;;;;;;;4956286;28;20023;-87
2021/08/15 04:11:21;;;;;;;11.10;6.22;;;;;;;;;;4956283;28;20022;-87
2021/08/15 04:13:47;;;;;;;10.83;6.13;;;;;;;;;;4956413;28;20061;-87
2021/08/15 04:16:12;;;;;;;13.63;6.90;;;;;;;;;;4956164;28;20023;-88
2021/08/15 04:18:37;;;;;;;13.07;6.67;;;;;;;;;;4956836;28;20022;-87
2021/08/15 04:21:03;;;;;;;12.20;5.90;;;;;;;;;;4940506;28;20026;-88
2021/08/15 04:23:30;;;;;;;12.03;6.37;;;;;;;;;;4956706;28;20041;-87
2021/08/15 04:25:55;;;;;;;11.05;6.25;;;;;;;;;;4956780;28;20048;-88
2021/08/15 04:28:23;;;;;;;12.50;6.57;;;;;;;;;;4940695;28;20401;-88
2021/08/15 04:30:48;;;;;;;12.65;6.15;;;;;;;;;;4956946;28;20078;-87
2021/08/15 04:33:18;;;;;;;9.57;5.70;;;;;;;;;;4956307;28;20030;-85
2021/08/15 04:35:43;;;;;;;10.95;6.45;;;;;;;;;;4956601;28;20023;-85
2021/08/15 04:38:08;;;;;;;11.97;6.27;;;;;;;;;;4955504;28;20073;-84
2021/08/15 04:40:34;;;;;;;11.97;6.47;;;;;;;;;;4971709;28;20117;-84
2021/08/15 04:42:59;;;;;;;11.30;6.23;;;;;;;;;;4966044;28;20114;-85
2021/08/15 04:45:24;;;;;;;12.87;6.27;;;;;;;;;;4952486;28;20114;-85
2021/08/15 04:47:50;;;;;;;12.57;6.40;;;;;;;;;;4936628;29;20023;-85
2021/08/15 04:50:15;;;;;;;12.30;6.30;;;;;;;;;;4950876;28;20106;-85
2021/08/15 04:52:40;;;;;;;13.37;6.40;;;;;;;;;;4971363;28;20070;-84
2021/08/15 04:55:06;;;;;;;13.03;6.00;;;;;;;;;;4955717;28;20122;-84
2021/08/15 04:57:32;;;;;;;11.77;6.10;;;;;;;;;;4955421;28;20034;-84
2021/08/15 04:59:57;;;;;;;9.90;5.97;;;;;;;;;;4955400;28;20027;-84
2021/08/15 05:02:22;;;;;;;10.80;5.80;;;;;;;;;;4955235;28;20029;-83
2021/08/15 05:04:48;;;;;;;12.10;5.70;;;;;;;;;;4936730;29;20521;-85
2021/08/15 05:07:13;;;;;;;9.70;5.43;;;;;;;;;;4936252;29;20114;-84
2021/08/15 05:09:40;;;;;;;12.43;5.23;;;;;;;;;;4936135;29;20126;-84
2021/08/15 05:12:11;;;;;;;9.95;5.00;;;;;;;;;;4935874;29;20030;-84
2021/08/15 05:14:36;;;;;;;8.45;5.05;;;;;;;;;;4952221;28;20038;-85
2021/08/15 05:17:02;;;;;;;9.33;5.33;;;;;;;;;;4936220;29;20094;-84
2021/08/15 05:19:27;;;;;;;7.67;5.00;;;;;;;;;;4920312;29;20502;-84
2021/08/15 05:21:52;;;;;;;10.23;5.07;;;;;;;;;;4936007;29;20105;-85
2021/08/15 05:24:18;;;;;;;8.53;4.70;;;;;;;;;;4920270;29;20030;-85
2021/08/15 05:26:45;;;;;;;9.40;4.80;;;;;;;;;;4936293;29;20118;-85
2021/08/15 05:29:10;;;;;;;7.18;4.45;;;;;;;;;;4920179;29;20097;-86
2021/08/15 05:31:36;;;;;;;9.80;4.63;;;;;;;;;;4935566;29;20098;-84
2021/08/15 05:34:01;;;;;;;12.53;4.93;;;;;;;;;;4935774;29;20121;-85
2021/08/15 05:36:26;;;;;;;12.83;4.67;;;;;;;;;;4935939;29;20563;-85
2021/08/15 05:38:52;;;;;;;8.67;4.67;;;;;;;;;;4936029;29;20023;-85
2021/08/15 05:41:17;;;;;;;7.90;4.60;;;;;;;;;;4935897;29;20110;-85
2021/08/15 05:43:42;;;;;;;7.47;4.40;;;;;;;;;;4936133;29;20127;-85
2021/08/15 05:46:08;;;;;;;9.03;4.60;;;;;;;;;;4920099;29;20118;-85
2021/08/15 05:48:33;;;;;;;12.03;4.90;;;;;;;;;;4970668;28;20463;-85
2021/08/15 05:50:59;;;;;;;9.23;5.17;;;;;;;;;;4977825;28;20121;-86
2021/08/15 05:53:24;;;;;;;7.77;4.73;;;;;;;;;;4977772;28;20032;-85
2021/08/15 05:55:49;;;;;;;8.20;5.30;;;;;;;;;;4977542;28;20109;-84
2021/08/15 05:58:15;;;;;;;11.30;5.90;;;;;;;;;;4977803;28;20524;-85
2021/08/15 06:00:40;;;;;;;12.13;5.50;;;;;;;;;;4975986;28;20113;-84
2021/08/15 06:03:08;;;;;;;9.73;5.53;;;;;;;;;;4958003;28;20026;-83
2021/08/15 06:05:34;;;;;;;11.77;5.88;;;;;;;;;;4974881;28;20054;-83
2021/08/15 06:07:59;;;;;;;8.63;5.33;;;;;;;;;;4958648;28;20109;-83
2021/08/15 06:10:24;;;;;;;9.63;5.23;;;;;;;;;;4958434;28;20106;-84
2021/08/15 06:12:50;;;;;;;9.13;5.13;;;;;;;;;;4957914;28;20131;-83
2021/08/15 06:15:15;;;;;;;11.98;5.40;;;;;;;;;;4958050;28;20553;-84
2021/08/15 06:17:41;;;;;;;;;;;;;;;;;;4956787;28;20042;-84
2021/08/15 06:20:10;;;;;;;9.15;5.32;;;;;;;;;;4975742;28;20369;-86
2021/08/15 06:22:58;;;;;;;10.30;5.10;;;;;;;;;;4990067;28;20045;-84
2021/08/15 06:25:24;;;;;;;7.78;4.90;;;;;;;;;;4986813;28;20037;-84
2021/08/15 06:27:49;;;;;;;7.53;4.55;;;;;;;;;;4945137;28;20034;-84
2021/08/15 06:30:21;;;;;;;8.43;4.30;;;;;;;;;;4958145;28;20019;-85
2021/08/15 06:32:50;;;;;;;10.10;4.50;;;;;;;;;;4973523;28;20500;-84
2021/08/15 06:35:19;;;;;;;9.52;4.65;;;;;;;;;;4957924;28;20027;-84
2021/08/15 06:37:45;;;;;;;8.15;4.43;;;;;;;;;;4958103;28;20022;-85
2021/08/15 06:40:11;;;;;;;6.20;4.18;;;;;;;;;;4958044;28;20053;-84
2021/08/15 06:42:36;;;;;;;9.00;4.30;;;;;;;;;;4967917;28;20037;-84
2021/08/15 06:45:02;;;;;;;7.80;4.25;;;;;;;;;;4961106;28;20018;-84
2021/08/15 06:47:33;;;;;;;7.05;4.82;;;;;;;;;;4993065;28;20061;-85
2021/08/15 06:49:58;;;;;;;7.03;4.20;;;;;;;;;;4992982;28;20489;-84
2021/08/15 06:52:24;;;;;;;7.70;4.53;;;;;;;;;;4976660;28;20030;-84
2021/08/15 06:54:49;;;;;;;7.47;4.45;;;;;;;;;;4960756;28;20063;-84
2021/08/15 06:57:15;;;;;;;6.07;4.05;;;;;;;;;;4941707;28;20482;-84
2021/08/15 06:59:40;;;;;;;8.15;4.60;;;;;;;;;;4938246;29;20030;-85
2021/08/15 07:02:06;;;;;;;8.48;4.10;;;;;;;;;;4937677;29;20391;-85
2021/08/15 07:04:31;;;;;;;6.80;4.05;;;;;;;;;;4937948;29;20043;-85
2021/08/15 07:06:57;;;;;;;5.10;3.67;;;;;;;;;;4937830;29;20031;-85
2021/08/15 07:09:22;;;;;;;6.75;4.20;;;;;;;;;;4953882;29;20165;-85
2021/08/15 07:11:47;;;;;;;8.32;4.07;;;;;;;;;;4937987;29;20023;-85
2021/08/15 07:14:19;;;;;;;5.93;3.90;;;;;;;;;;4938137;29;20098;-84
2021/08/15 07:16:44;;;;;;;5.53;3.67;;;;;;;;;;4953806;29;20483;-85
2021/08/15 07:19:10;;;;;;;8.68;3.97;;;;;;;;;;4937586;29;20039;-86
2021/08/15 07:21:35;;;;;;;8.40;4.00;;;;;;;;;;4936731;29;20038;-85
2021/08/15 07:24:01;;;;;;;6.43;3.90;;;;;;;;;;4953689;28;20461;-85
2021/08/15 07:26:26;;;;;;;8.60;4.10;;;;;;;;;;4937629;28;20031;-84
2021/08/15 07:28:53;;;;;;;8.05;4.28;;;;;;;;;;4925962;29;20038;-85
2021/08/15 07:31:18;;;;;;;5.60;4.20;;;;;;;;;;4937762;28;20662;-85
2021/08/15 07:33:43;;;;;;;6.75;4.07;;;;;;;;;;4941994;29;20086;-85
2021/08/15 07:36:09;;;;;;;5.80;3.70;;;;;;;;;;4945746;28;20053;-85
2021/08/15 07:38:34;;;;;;;6.53;3.67;;;;;;;;;;4956612;28;20098;-85
2021/08/15 07:41:01;;;;;;;6.50;3.58;;;;;;;;;;4956273;28;20026;-86
2021/08/15 07:43:30;;;;;;;5.68;3.58;;;;;;;;;;4972877;28;20030;-85
2021/08/15 07:46:04;;;;;;;5.03;3.40;;;;;;;;;;4956651;28;20078;-85
2021/08/15 07:48:30;;;;;;;5.00;3.05;;;;;;;;;;4956400;28;20026;-85
2021/08/15 07:50:55;;;;;;;5.00;3.40;;;;;;;;;;4955283;28;20057;-85
2021/08/15 07:56:42;;;;;;;4.57;3.40;;;;;;;;;;4984941;23;20097;-62
2021/08/15 07:59:10;;;;;;;5.23;3.40;;;;;;;;;;4977393;28;20027;-61
2021/08/15 08:01:35;;;;;;;4.18;3.08;;;;;;;;;;4971265;28;20270;-60
2021/08/15 08:04:00;;;;;;;4.97;3.07;;;;;;;;;;4968772;28;20073;-60
2021/08/15 08:06:26;;;;;;;4.10;3.35;;;;;;;;;;4969835;28;20274;-59
2021/08/15 08:08:51;;;;;;;5.47;3.60;;;;;;;;;;4972209;28;20121;-60
2021/08/15 08:11:16;;;;;;;4.85;3.50;;;;;;;;;;4971619;28;20345;-58
2021/08/15 08:13:44;;;;;;;4.73;3.40;;;;;;;;;;4972195;28;20113;-60
2021/08/15 08:16:09;;;;;;;6.43;3.22;;;;;;;;;;4972619;28;20738;-58
2021/08/15 08:18:34;;;;;;;5.95;3.40;;;;;;;;;;4970527;28;20062;-61
2021/08/15 08:21:00;;;;;;;6.15;3.58;;;;;;;;;;4971708;28;20034;-58
2021/08/15 08:23:25;;;;;;;4.75;3.42;;;;;;;;;;4972666;28;20030;-59
2021/08/15 08:25:51;;;;;;;5.30;3.45;;;;;;;;;;4972338;28;20531;-61
2021/08/15 08:28:16;;;;;;;5.82;3.22;;;;;;;;;;4970711;28;20031;-61
2021/08/15 08:30:42;;;;;;;6.10;3.53;;;;;;;;;;4971441;28;20547;-60
2021/08/15 08:33:07;;;;;;;5.47;3.58;;;;;;;;;;4971617;28;20023;-60
2021/08/15 08:35:33;;;;;;;6.60;3.70;;;;;;;;;;4962376;28;20058;-60
2021/08/15 08:37:58;;;;;;;5.72;3.70;;;;;;;;;;4971255;28;20023;-60
2021/08/15 08:40:23;;;;;;;9.32;3.50;;;;;;;;;;4955909;28;20023;-62
2021/08/15 08:42:51;;;;;;;5.72;3.40;;;;;;;;;;4964562;28;20080;-58
2021/08/15 08:45:21;;;;;;;4.70;3.28;;;;;;;;;;4935863;28;20042;-60
2021/08/15 08:47:47;;;;;;;8.25;3.53;;;;;;;;;;4956843;28;20023;-60
2021/08/15 08:50:12;;;;;;;5.65;3.50;;;;;;;;;;4957996;28;20022;-61
2021/08/15 08:52:39;;;;;;;5.25;3.13;;;;;;;;;;4958718;28;20062;-61
2021/08/15 08:55:05;;;;;;;6.22;3.60;;;;;;;;;;4964854;28;20555;-62
2021/08/15 08:57:30;;;;;;;5.07;3.33;;;;;;;;;;4959302;28;20170;-60
2021/08/15 08:59:56;;;;;;;6.72;3.40;;;;;;;;;;4954229;28;20069;-61
2021/08/15 09:02:21;;;;;;;5.32;3.80;;;;;;;;;;4963119;28;20472;-57
2021/08/15 09:04:47;;;;;;;5.65;3.60;;;;;;;;;;4958899;28;20066;-60
2021/08/15 09:07:16;;;;;;;4.97;3.55;;;;;;;;;;4962284;28;20028;-61
2021/08/15 09:09:51;;;;;;;5.13;3.28;;;;;;;;;;4962808;28;20282;-60
2021/08/15 09:12:16;;;;;;;6.80;3.47;;;;;;;;;;4956667;28;20110;-62
2021/08/15 09:14:42;;;;;;;5.32;3.53;;;;;;;;;;4958246;28;20365;-58
2021/08/15 09:17:08;;;;;;;5.97;3.27;;;;;;;;;;4943195;29;20118;-59
2021/08/15 09:19:42;;;;;;;5.50;3.38;;;;;;;;;;4957077;28;20282;-57
2021/08/15 09:22:23;;;;;;;6.40;3.40;;;;;;;;;;4961563;28;20027;-60
2021/08/15 09:24:55;;;;;;;4.80;3.38;;;;;;;;;;4966006;28;20030;-63
2021/08/15 09:27:25;;;;;;;5.38;3.65;;;;;;;;;;4959919;28;20120;-62
2021/08/15 09:30:24;;;;;;;5.07;3.65;;;;;;;;;;4966293;28;20069;-58
2021/08/15 09:33:02;;;;;;;6.25;3.38;;;;;;;;;;4961309;28;20031;-59
2021/08/15 09:35:31;;;;;;;7.43;3.75;;;;;;;;;;4957434;28;20510;-60
2021/08/15 09:38:13;;;;;;;6.93;3.70;;;;;;;;;;4961682;28;20514;-59
2021/08/15 09:40:45;;;;;;;6.88;3.58;;;;;;;;;;4952880;28;20463;-61
2021/08/15 09:43:21;;;;;;;6.63;3.45;;;;;;;;;;4963100;28;20031;-56
2021/08/15 09:45:52;;;;;;;6.65;3.70;;;;;;;;;;4966133;28;20390;-59
2021/08/15 09:48:27;;;;;;;8.82;3.90;;;;;;;;;;4955783;28;20053;-58
2021/08/15 09:51:14;;;;;;;6.03;3.80;;;;;;;;;;4964055;28;20025;-60
2021/08/15 09:54:02;;;;;;;8.07;3.50;;;;;;;;;;4964040;28;20034;-59
2021/08/15 09:56:31;;;;;;;7.93;3.65;;;;;;;;;;4973937;28;20039;-60
2021/08/15 09:59:19;;;;;;;7.63;3.65;;;;;;;;;;4966242;28;20426;-57
2021/08/15 10:01:52;;;;;;;7.05;3.80;;;;;;;;;;4962385;28;20388;-60
2021/08/15 10:04:18;;;;;;;7.18;3.50;;;;;;;;;;4961886;28;20054;-53
2021/08/15 10:06:44;;;;;;;7.30;3.90;;;;;;;;;;4959558;28;20060;-56
2021/08/15 10:09:10;;;;;;;7.70;3.78;;;;;;;;;;4956132;28;20062;-60
2021/08/15 10:11:36;;;;;;;5.45;3.72;;;;;;;;;;4962768;28;20029;-58
2021/08/15 10:14:05;;;;;;;6.65;4.00;;;;;;;;;;4960984;28;20078;-61
2021/08/15 10:16:35;;;;;;;7.70;3.80;;;;;;;;;;4960929;28;20112;-60
2021/08/15 10:19:03;;;;;;;8.88;4.20;;;;;;;;;;4947301;28;20506;-54
2021/08/15 10:21:29;;;;;;;5.53;3.63;;;;;;;;;;4963328;28;20492;-56
2021/08/15 10:24:05;;;;;;;9.93;4.38;;;;;;;;;;4950777;28;20035;-57
2021/08/15 10:26:36;;;;;;;9.43;4.03;;;;;;;;;;4968379;28;20140;-56
2021/08/15 10:29:02;;;;;;;7.35;4.05;;;;;;;;;;4968182;28;20089;-61
2021/08/15 10:32:05;;;;;;;7.65;4.43;;;;;;;;;;4967363;28;20387;-56
2021/08/15 10:34:48;;;;;;;10.23;4.50;;;;;;;;;;4956286;28;20499;-56
2021/08/15 10:37:23;;;;;;;9.25;4.80;;;;;;;;;;4963593;28;20037;-59
2021/08/15 10:39:48;;;;;;;8.02;4.50;;;;;;;;;;4957792;28;20024;-55
2021/08/15 10:42:39;;;;;;;9.85;4.70;;;;;;;;;;4958586;28;20041;-58
2021/08/15 10:45:07;;;;;;;7.68;4.55;;;;;;;;;;4964692;28;20030;-53
2021/08/15 10:47:33;;;;;;;7.63;4.30;;;;;;;;;;4959764;28;20051;-58
2021/08/15 10:50:02;;;;;;;7.95;4.32;;;;;;;;;;4950004;28;20015;-56
2021/08/15 10:52:29;;;;;;;15.40;4.90;;;;;;;;;;4953230;28;20029;-54
2021/08/15 10:54:59;;;;;;;9.82;4.72;;;;;;;;;;4955994;28;20034;-57
2021/08/15 10:57:38;;;;;;;17.27;4.72;;;;;;;;;;4968412;28;20038;-58
2021/08/15 11:00:29;;;;;;;12.07;4.80;;;;;;;;;;4963901;28;20058;-56
2021/08/15 11:03:23;;;;;;;9.68;4.53;;;;;;;;;;4961608;28;20030;-52
2021/08/15 11:05:49;;;;;;;8.07;4.63;;;;;;;;;;4950636;28;20039;-59
2021/08/15 11:08:33;;;;;;;10.95;4.90;;;;;;;;;;4958567;28;20369;-55
2021/08/15 11:11:08;;;;;;;7.55;4.90;;;;;;;;;;4955838;28;20023;-48
2021/08/15 11:13:34;;;;;;;9.20;4.78;;;;;;;;;;4962585;28;20035;-54
2021/08/15 11:16:24;;;;;;;9.20;4.32;;;;;;;;;;4958051;28;20106;-58
2021/08/15 11:19:08;;;;;;;8.50;4.65;;;;;;;;;;4963308;28;20391;-52
2021/08/15 11:22:10;;;;;;;7.38;4.80;;;;;;;;;;4955186;28;20035;-57
2021/08/15 11:24:39;;;;;;;8.40;4.85;;;;;;;;;;4953307;28;20063;-53
2021/08/15 11:27:05;;;;;;;9.20;5.32;;;;;;;;;;4952437;28;20030;-60
2021/08/15 11:29:30;;;;;;;12.27;5.00;;;;;;;;;;4946496;28;20027;-53
2021/08/15 11:31:56;;;;;;;8.82;4.90;;;;;;;;;;4958954;28;20143;-61
2021/08/15 11:34:21;;;;;;;9.30;4.97;;;;;;;;;;4943537;28;20074;-57
2021/08/15 11:37:04;;;;;;;11.65;4.80;;;;;;;;;;4957123;28;20034;-58
2021/08/15 11:39:36;;;;;;;7.18;4.47;;;;;;;;;;4960829;28;20034;-54
2021/08/15 11:42:06;;;;;;;8.57;4.65;;;;;;;;;;4957614;28;20034;-53
2021/08/15 11:45:07;;;;;;;11.10;5.22;;;;;;;;;;4957295;28;20030;-52
2021/08/15 11:47:38;;;;;;;9.07;4.90;;;;;;;;;;4897231;29;20039;-57
2021/08/15 11:50:13;;;;;;;14.75;4.88;;;;;;;;;;4945463;28;20035;-51
2021/08/15 11:52:38;;;;;;;8.05;4.75;;;;;;;;;;4961395;28;20030;-56
2021/08/15 11:55:05;;;;;;;8.18;4.97;;;;;;;;;;4957586;28;20035;-50
2021/08/15 11:57:47;;;;;;;8.18;4.55;;;;;;;;;;4960462;28;20451;-58
2021/08/15 12:00:13;;;;;;;8.95;4.57;;;;;;;;;;4962811;28;20022;-55
2021/08/15 12:02:38;;;;;;;7.30;4.47;;;;;;;;;;4936099;28;20042;-56
2021/08/15 12:05:04;;;;;;;11.60;5.22;;;;;;;;;;4939238;28;20034;-50
2021/08/15 12:07:29;;;;;;;;;;;;;;;;;;4962818;28;20125;-54
2021/08/15 12:10:27;;;;;;;7.00;4.70;;;;;;;;;;4956355;28;20008;-56
2021/08/15 12:13:12;;;;;;;;;;;;;;;;;;4960791;28;20027;-50
2021/08/15 12:15:38;;;;;;;7.47;4.50;;;;;;;;;;4956600;28;19985;-53
2021/08/15 12:18:03;;;;;;;10.05;4.95;;;;;;;;;;4964239;28;20384;-55
2021/08/15 12:20:28;;;;;;;7.65;4.57;;;;;;;;;;4967532;28;20027;-60
2021/08/15 12:23:06;;;;;;;9.60;4.65;;;;;;;;;;4966920;28;20089;-55
2021/08/15 12:25:31;;;;;;;9.55;4.53;;;;;;;;;;4966966;28;20027;-53
2021/08/15 12:28:15;;;;;;;9.80;4.60;;;;;;;;;;4964659;28;20578;-55
2021/08/15 12:30:41;;;;;;;7.70;4.97;;;;;;;;;;4969555;28;20027;-52
2021/08/15 12:33:25;;;;;;;7.60;4.70;;;;;;;;;;4968158;28;20041;-56
2021/08/15 12:35:50;;;;;;;10.07;4.70;;;;;;;;;;4969825;28;20037;-57
2021/08/15 12:38:29;;;;;;;8.38;4.90;;;;;;;;;;4968428;28;20026;-57
2021/08/15 12:40:54;;;;;;;8.25;4.28;;;;;;;;;;4969162;28;20117;-62
2021/08/15 12:43:23;;;;;;;10.40;4.50;;;;;;;;;;4969343;28;20129;-53
2021/08/15 12:45:49;;;;;;;9.68;4.68;;;;;;;;;;4968313;28;20027;-53
2021/08/15 12:48:16;;;;;;;9.25;4.85;;;;;;;;;;4968219;28;20105;-54
2021/08/15 12:50:42;;;;;;;7.93;4.30;;;;;;;;;;4968451;28;20023;-53
2021/08/15 12:53:17;;;;;;;9.07;4.28;;;;;;;;;;4967711;28;20026;-53
2021/08/15 12:55:43;;;;;;;6.18;4.40;;;;;;;;;;4970608;28;20019;-59
2021/08/15 12:58:09;;;;;;;7.80;4.65;;;;;;;;;;4973168;28;20114;-55
2021/08/15 13:00:35;;;;;;;9.82;4.63;;;;;;;;;;4972009;28;20467;-56
2021/08/15 13:03:01;;;;;;;9.25;4.30;;;;;;;;;;4973105;28;20550;-54
2021/08/15 13:05:28;;;;;;;7.53;4.47;;;;;;;;;;4973158;28;20121;-54
2021/08/15 13:07:54;;;;;;;35.60;6.38;;;;;;;;;;4973135;28;20031;-51
2021/08/15 13:10:19;;;;;;;9.32;4.90;;;;;;;;;;4973201;28;20022;-57
2021/08/15 13:12:45;;;;;;;9.00;4.68;;;;;;;;;;4972907;28;20518;-49
2021/08/15 13:15:11;;;;;;;15.45;5.10;;;;;;;;;;4973029;28;20379;-52
2021/08/15 13:17:37;;;;;;;12.18;4.80;;;;;;;;;;4972070;28;20433;-54
2021/08/15 13:20:03;;;;;;;11.32;4.50;;;;;;;;;;4972121;28;20101;-53
2021/08/15 13:22:28;;;;;;;15.80;5.13;;;;;;;;;;4972286;28;20471;-55
2021/08/15 13:24:54;;;;;;;11.23;4.80;;;;;;;;;;4972917;28;20101;-54
2021/08/15 13:27:19;;;;;;;8.50;4.85;;;;;;;;;;4972884;28;20412;-50
2021/08/15 13:29:45;;;;;;;13.75;4.57;;;;;;;;;;4972956;28;20033;-50
2021/08/15 13:32:10;;;;;;;10.88;4.45;;;;;;;;;;4955086;28;20027;-54
2021/08/15 13:34:36;;;;;;;9.23;4.50;;;;;;;;;;4972894;28;20030;-56
2021/08/15 13:37:01;;;;;;;18.17;4.88;;;;;;;;;;4972845;28;20027;-52
2021/08/15 13:39:26;;;;;;;9.50;4.32;;;;;;;;;;4970805;28;20026;-54
2021/08/15 13:41:52;;;;;;;9.38;4.72;;;;;;;;;;4972122;28;20026;-55
2021/08/15 13:44:17;;;;;;;8.75;4.40;;;;;;;;;;4972877;28;20106;-56
2021/08/15 13:46:43;;;;;;;6.80;4.40;;;;;;;;;;4972983;28;20022;-53
2021/08/15 13:49:08;;;;;;;8.57;4.28;;;;;;;;;;4970956;28;20562;-59
2021/08/15 13:51:34;;;;;;;7.85;4.68;;;;;;;;;;4972118;28;20102;-52
2021/08/15 13:54:01;;;;;;;7.28;4.70;;;;;;;;;;4971067;28;20141;-49
2021/08/15 13:56:26;;;;;;;9.30;4.38;;;;;;;;;;4972351;28;20031;-61
2021/08/15 13:58:52;;;;;;;9.25;4.38;;;;;;;;;;4972307;28;20121;-53
2021/08/15 14:01:17;;;;;;;8.05;4.10;;;;;;;;;;4970469;28;20023;-55
2021/08/15 14:03:42;;;;;;;11.55;4.70;;;;;;;;;;4972479;28;20146;-53
2021/08/15 14:06:08;;;;;;;8.23;4.55;;;;;;;;;;4972399;28;20535;-50
2021/08/15 14:08:33;;;;;;;11.13;5.00;;;;;;;;;;4971291;28;20031;-57
2021/08/15 14:10:59;;;;;;;7.97;4.50;;;;;;;;;;4970256;28;20522;-50
2021/08/15 14:13:24;;;;;;;7.63;4.40;;;;;;;;;;4972589;28;20119;-56
2021/08/15 14:15:49;;;;;;;14.45;4.80;;;;;;;;;;4971086;28;20154;-58
2021/08/15 14:18:15;;;;;;;8.13;4.50;;;;;;;;;;4971941;28;20026;-52
2021/08/15 14:20:40;;;;;;;7.68;4.70;;;;;;;;;;4971813;28;20031;-54
2021/08/15 14:23:06;;;;;;;7.82;4.70;;;;;;;;;;4966753;28;20031;-58
2021/08/15 14:25:31;;;;;;;10.95;4.63;;;;;;;;;;4952854;28;20575;-53
2021/08/15 14:27:57;;;;;;;10.43;4.70;;;;;;;;;;4951278;29;20182;-55
2021/08/15 14:30:22;;;;;;;8.68;4.05;;;;;;;;;;4951362;29;20026;-54
2021/08/15 14:32:48;;;;;;;6.93;4.30;;;;;;;;;;4951641;28;20460;-54
2021/08/15 14:35:13;;;;;;;8.10;4.47;;;;;;;;;;4955658;28;20395;-55
2021/08/15 14:37:39;;;;;;;7.82;4.60;;;;;;;;;;4970499;28;20078;-55
2021/08/15 14:40:06;;;;;;;10.77;4.50;;;;;;;;;;4969965;28;20122;-53
2021/08/15 14:42:31;;;;;;;7.93;4.38;;;;;;;;;;4971182;28;20037;-48
2021/08/15 14:44:57;;;;;;;7.55;4.47;;;;;;;;;;4971342;28;20232;-58
2021/08/15 14:47:22;;;;;;;10.45;5.28;;;;;;;;;;4970478;28;20515;-50
2021/08/15 14:49:47;;;;;;;8.18;4.43;;;;;;;;;;4970760;28;20031;-49
2021/08/15 14:52:13;;;;;;;7.75;4.70;;;;;;;;;;4970936;28;20031;-58
2021/08/15 14:54:38;;;;;;;;;;;;;;;;;;4971758;28;20061;-51
2021/08/15 14:57:07;;;;;;;19.10;5.00;;;;;;;;;;4971543;28;19941;-52
2021/08/15 14:59:34;;;;;;;87.18;10.68;;;;;;;;;;4953722;28;20313;-48
2021/08/15 15:01:59;;;;;;;17.30;5.88;;;;;;;;;;4971177;28;20034;-60
2021/08/15 15:04:25;;;;;;;;;;;;;;;;;;4971043;28;20038;-54
2021/08/15 15:06:51;;;;;;;6.78;4.65;;;;;;;;;;4970894;28;19953;-54
2021/08/15 15:09:16;;;;;;;;;;;;;;;;;;4971517;28;20094;-52
2021/08/15 15:11:41;;;;;;;12.40;5.00;;;;;;;;;;4970677;28;19910;-59
2021/08/15 15:14:07;;;;;;;9.90;5.25;;;;;;;;;;4971211;28;20058;-49
2021/08/15 15:16:32;;;;;;;12.73;5.23;;;;;;;;;;4971323;28;20117;-54
2021/08/15 15:18:58;;;;;;;12.97;5.40;;;;;;;;;;4970211;28;20376;-56
2021/08/15 15:21:23;;;;;;;16.65;5.43;;;;;;;;;;4968887;28;20286;-57
2021/08/15 15:23:48;;;;;;;15.53;5.77;;;;;;;;;;4986175;28;20039;-54
2021/08/15 15:26:14;;;;;;;17.47;4.53;;;;;;;;;;4970950;28;20357;-52
2021/08/15 15:28:40;;;;;;;12.30;3.45;;;;;;;;;;4970392;28;20026;-54
2021/08/15 15:31:06;;;;;;;5.88;2.72;;;;;;;;;;4970247;28;20518;-49
2021/08/15 15:33:32;;;;;;;9.93;2.97;;;;;;;;;;4969707;28;20109;-48
2021/08/15 15:35:57;;;;;;;8.18;2.85;;;;;;;;;;4969416;28;20109;-50
2021/08/15 15:38:23;;;;;;;12.30;3.17;;;;;;;;;;4970848;28;20035;-52
2021/08/15 15:40:48;;;;;;;11.70;3.00;;;;;;;;;;4970804;28;20026;-51
2021/08/15 15:43:13;;;;;;;10.47;3.37;;;;;;;;;;4970229;28;20555;-47
2021/08/15 15:45:42;;;;;;;6.03;2.53;;;;;;;;;;4970866;28;20134;-59
2021/08/15 15:48:07;;;;;;;7.10;2.70;;;;;;;;;;4970312;28;20042;-55
2021/08/15 15:50:33;;;;;;;6.67;2.30;;;;;;;;;;4952858;28;20019;-47
2021/08/15 15:52:58;;;;;;;6.70;2.50;;;;;;;;;;4968589;28;20518;-47
2021/08/15 15:55:24;;;;;;;6.77;2.33;;;;;;;;;;4969078;28;20019;-51
2021/08/15 15:57:49;;;;;;;6.40;2.70;;;;;;;;;;4969394;28;20027;-52
2021/08/15 16:00:15;;;;;;;7.13;2.25;;;;;;;;;;4969558;28;20582;-52
2021/08/15 16:02:41;;;;;;;8.98;2.58;;;;;;;;;;4970024;28;20034;-50
2021/08/15 16:05:07;;;;;;;6.60;2.60;;;;;;;;;;4968939;28;20073;-56
2021/08/15 16:07:33;;;;;;;5.95;2.28;;;;;;;;;;4970394;28;20468;-51
2021/08/15 16:09:59;;;;;;;5.03;1.92;;;;;;;;;;4970505;28;20471;-52
2021/08/15 16:12:24;;;;;;;5.57;2.10;;;;;;;;;;4968657;28;20121;-53
2021/08/15 16:14:49;;;;;;;3.73;1.63;;;;;;;;;;4968161;28;20470;-51
2021/08/15 16:17:15;;;;;;;4.53;1.70;;;;;;;;;;4969707;28;20142;-52
2021/08/15 16:19:40;;;;;;;5.53;2.23;;;;;;;;;;4970007;28;20122;-57
2021/08/15 16:22:05;;;;;;;5.13;2.17;;;;;;;;;;4969772;28;20033;-50
2021/08/15 16:24:31;;;;;;;3.63;1.80;;;;;;;;;;4970918;28;20384;-51
2021/08/15 16:26:56;;;;;;;6.27;2.00;;;;;;;;;;4961164;28;20031;-60
2021/08/15 16:29:21;;;;;;;4.20;2.00;;;;;;;;;;4959045;28;20547;-51
2021/08/15 16:31:47;;;;;;;5.50;2.30;;;;;;;;;;4944233;28;20114;-55
2021/08/15 16:34:12;;;;;;;9.00;2.30;;;;;;;;;;4957844;28;21132;-48
2021/08/15 16:36:37;;;;;;;6.43;2.20;;;;;;;;;;4956961;28;20125;-53
2021/08/15 16:39:03;;;;;;;7.10;1.90;;;;;;;;;;4952497;28;20138;-54
2021/08/15 16:41:28;;;;;;;6.43;2.00;;;;;;;;;;4958207;28;20475;-54
2021/08/15 16:43:53;;;;;;;4.53;2.20;;;;;;;;;;4957065;28;20460;-49
2021/08/15 16:46:19;;;;;;;6.77;2.30;;;;;;;;;;4967134;28;20033;-54
2021/08/15 16:48:45;;;;;;;4.77;2.33;;;;;;;;;;4968916;28;20024;-48
2021/08/15 16:51:12;;;;;;;6.72;2.22;;;;;;;;;;4955643;28;20102;-52
2021/08/15 16:53:37;;;;;;;5.63;2.33;;;;;;;;;;4961537;28;20059;-54
2021/08/15 16:56:07;;;;;;;6.43;2.07;;;;;;;;;;4955797;28;20035;-48
2021/08/15 16:58:32;;;;;;;4.20;1.95;;;;;;;;;;4947708;28;20034;-48
2021/08/15 17:00:57;;;;;;;6.27;2.53;;;;;;;;;;4951356;28;20477;-52
2021/08/15 17:03:23;;;;;;;6.20;2.40;;;;;;;;;;4951964;28;20027;-49
2021/08/15 17:05:48;;;;;;;9.63;2.40;;;;;;;;;;4960670;28;20097;-53
2021/08/15 17:08:13;;;;;;;7.97;2.60;;;;;;;;;;4957569;28;20108;-57
2021/08/15 17:10:39;;;;;;;8.23;2.70;;;;;;;;;;4960199;28;20105;-49
2021/08/15 17:13:04;;;;;;;4.67;2.30;;;;;;;;;;4953388;28;20026;-54
2021/08/15 17:15:30;;;;;;;7.00;2.57;;;;;;;;;;4966537;28;20410;-55
2021/08/15 17:17:55;;;;;;;5.27;2.40;;;;;;;;;;4970672;28;20412;-49
2021/08/15 17:20:21;;;;;;;10.77;2.43;;;;;;;;;;4967413;28;20019;-53
2021/08/15 17:22:46;;;;;;;6.93;2.60;;;;;;;;;;4969758;28;20031;-54
2021/08/15 17:25:12;;;;;;;7.27;2.17;;;;;;;;;;4968565;28;20054;-51
2021/08/15 17:27:40;;;;;;;6.17;2.43;;;;;;;;;;4968393;28;20022;-49
2021/08/15 17:30:06;;;;;;;5.28;2.78;;;;;;;;;;4968528;28;20260;-52